Time;durP1;ratioP1;P1;durP2;ratioP2;P2;SDS_P1;SDS_P2;PMS_P1;PMS_P2;Temp;Humidity;BMP_temperature;BMP_pressure;BME280_temperature;BME280_humidity;BME280_pressure;Samples;Min_cycle;Max_cycle;Signal;HPM_P1;HPM_P2
2022/12/19 00:02:04;;;;;;;;;;;0.70;99.90;;;;;;5060648;28;19959;-74
2022/12/19 00:04:29;;;;;;;;;;;0.70;99.90;;;;;;5070515;28;19916;-78
2022/12/19 00:06:56;;;;;;;;;;;0.80;99.90;;;;;;5068857;28;19916;-79
2022/12/19 00:09:22;;;;;;;;;;;0.80;99.90;;;;;;5076964;28;20415;-73
2022/12/19 00:11:47;;;;;;;;;;;0.80;99.90;;;;;;5067935;28;19908;-82
2022/12/19 00:14:13;;;;;;;;;;;0.80;99.90;;;;;;5076774;28;19913;-83
2022/12/19 00:16:38;;;;;;;;;;;0.80;99.90;;;;;;5076932;28;20291;-85
2022/12/19 00:19:04;;;;;;;;;;;0.80;99.90;;;;;;5078077;28;19916;-82
2022/12/19 00:21:31;;;;;;;;;;;0.80;99.90;;;;;;5067373;28;19913;-81
2022/12/19 00:23:56;;;;;;;;;;;0.90;99.90;;;;;;5076015;28;19912;-83
2022/12/19 00:26:22;;;;;;;;;;;0.90;99.90;;;;;;5076820;28;19935;-82
2022/12/19 00:28:52;;;;;;;;;;;0.90;99.90;;;;;;5075564;28;19919;-74
2022/12/19 00:31:18;;;;;;;;;;;0.90;99.90;;;;;;5076480;28;20374;-81
2022/12/19 00:33:44;;;;;;;;;;;1.00;99.90;;;;;;5074311;28;19935;-75
2022/12/19 00:36:11;;;;;;;;;;;1.00;99.90;;;;;;5073960;28;19916;-82
2022/12/19 00:38:37;;;;;;;;;;;1.00;99.90;;;;;;5077479;28;19912;-74
2022/12/19 00:41:09;;;;;;;;;;;1.00;99.90;;;;;;5065821;28;20354;-78
2022/12/19 00:43:35;;;;;;;;;;;1.00;99.90;;;;;;5069420;28;20427;-81
2022/12/19 00:46:01;;;;;;;;;;;1.00;99.90;;;;;;5076265;28;19954;-81
2022/12/19 00:48:27;;;;;;;;;;;1.10;99.90;;;;;;5081848;28;19915;-82
2022/12/19 00:51:06;;;;;;;;;;;1.10;99.90;;;;;;5072482;28;19915;-73
2022/12/19 00:53:32;;;;;;;;;;;1.20;99.90;;;;;;5075072;28;19922;-72
2022/12/19 00:56:01;;;;;;;;;;;1.20;99.90;;;;;;5072953;28;19912;-72
2022/12/19 00:58:27;;;;;;;;;;;1.30;99.90;;;;;;5074839;28;19944;-81
2022/12/19 01:00:53;;;;;;;;;;;1.30;99.90;;;;;;5071981;28;19964;-82
2022/12/19 01:03:18;;;;;;;;;;;1.30;99.90;;;;;;5069151;28;19920;-90
2022/12/19 01:05:44;;;;;;;;;;;1.40;99.90;;;;;;5076257;28;20341;-81
2022/12/19 01:08:09;;;;;;;;;;;1.30;99.90;;;;;;5076820;28;20315;-82
2022/12/19 01:10:35;;;;;;;;;;;1.30;99.90;;;;;;5076717;28;20300;-79
2022/12/19 01:13:00;;;;;;;;;;;1.40;99.90;;;;;;5076709;28;19912;-73
2022/12/19 01:15:26;;;;;;;;;;;1.40;99.90;;;;;;5073669;28;19909;-73
2022/12/19 01:17:51;;;;;;;;;;;1.40;99.90;;;;;;5059231;28;19922;-82
2022/12/19 01:20:18;;;;;;;;;;;1.40;99.90;;;;;;5075658;28;19917;-73
2022/12/19 01:22:44;;;;;;;;;;;1.50;99.90;;;;;;5060318;28;19924;-83
2022/12/19 01:25:10;;;;;;;;;;;1.40;99.90;;;;;;5075604;28;19909;-82
2022/12/19 01:27:36;;;;;;;;;;;1.50;99.90;;;;;;5075956;28;20383;-83
2022/12/19 01:30:03;;;;;;;;;;;1.50;99.90;;;;;;5073599;28;20015;-74
2022/12/19 01:32:28;;;;;;;;;;;1.50;99.90;;;;;;5063865;28;19912;-83
2022/12/19 01:34:54;;;;;;;;;;;1.50;99.90;;;;;;5075751;28;20326;-83
2022/12/19 01:37:19;;;;;;;;;;;1.50;99.90;;;;;;5068381;28;19917;-73
2022/12/19 01:39:45;;;;;;;;;;;1.50;99.90;;;;;;5072525;28;19963;-83
2022/12/19 01:42:33;;;;;;;;;;;1.50;99.90;;;;;;5074678;28;20242;-77
2022/12/19 01:45:07;;;;;;;;;;;1.50;99.90;;;;;;5079228;28;20035;-79
2022/12/19 01:47:53;;;;;;;;;;;1.50;99.90;;;;;;5080441;28;20226;-82
2022/12/19 01:50:24;;;;;;;;;;;1.50;99.90;;;;;;5083608;28;19916;-74
2022/12/19 01:52:50;;;;;;;;;;;1.50;99.90;;;;;;5075042;28;19977;-84
2022/12/19 01:55:16;;;;;;;;;;;1.60;99.90;;;;;;5074601;28;20303;-73
2022/12/19 01:57:41;;;;;;;;;;;1.60;99.90;;;;;;5076636;28;20219;-72
2022/12/19 02:00:11;;;;;;;;;;;1.60;99.90;;;;;;5074146;28;19912;-78
2022/12/19 02:02:40;;;;;;;;;;;1.60;99.90;;;;;;5074739;28;19920;-74
2022/12/19 02:05:06;;;;;;;;;;;1.70;99.90;;;;;;5059894;28;19958;-74
2022/12/19 02:07:32;;;;;;;;;;;1.70;99.90;;;;;;5067658;28;19912;-73
2022/12/19 02:09:58;;;;;;;;;;;1.70;99.90;;;;;;5075305;28;19909;-72
2022/12/19 02:12:24;;;;;;;;;;;1.70;99.90;;;;;;5075918;28;20307;-75
2022/12/19 02:14:50;;;;;;;;;;;1.80;99.90;;;;;;5074009;28;19916;-85
2022/12/19 02:17:15;;;;;;;;;;;1.80;99.90;;;;;;5074789;28;20211;-75
2022/12/19 02:19:59;;;;;;;;;;;1.90;99.90;;;;;;5077605;28;19912;-74
2022/12/19 02:22:31;;;;;;;;;;;1.90;99.90;;;;;;5072612;28;20318;-73
2022/12/19 02:25:15;;;;;;;;;;;1.90;99.90;;;;;;5071125;28;19912;-73
2022/12/19 02:27:59;;;;;;;;;;;2.00;99.90;;;;;;5088103;28;19913;-82
2022/12/19 02:30:37;;;;;;;;;;;2.00;99.90;;;;;;5071358;28;20244;-83
2022/12/19 02:33:07;;;;;;;;;;;2.00;99.90;;;;;;5064910;28;19965;-83
2022/12/19 02:35:39;;;;;;;;;;;2.10;99.90;;;;;;5064951;28;19916;-81
2022/12/19 02:38:09;;;;;;;;;;;2.10;99.90;;;;;;5067864;28;19919;-74
2022/12/19 02:40:55;;;;;;;;;;;2.10;99.90;;;;;;5075258;28;19916;-82
2022/12/19 02:43:21;;;;;;;;;;;2.20;99.90;;;;;;5073295;28;19920;-83
2022/12/19 02:45:47;;;;;;;;;;;2.30;99.90;;;;;;5074327;28;20050;-73
2022/12/19 02:48:13;;;;;;;;;;;2.40;99.90;;;;;;5075424;28;19947;-73
2022/12/19 02:50:40;;;;;;;;;;;2.40;99.90;;;;;;5073171;28;20311;-80
2022/12/19 02:53:08;;;;;;;;;;;2.40;99.90;;;;;;5072766;28;19974;-75
2022/12/19 02:55:37;;;;;;;;;;;2.50;99.90;;;;;;5072906;28;19912;-73
2022/12/19 02:58:23;;;;;;;;;;;2.60;99.90;;;;;;5073057;28;19969;-73
2022/12/19 03:01:12;;;;;;;;;;;2.50;99.90;;;;;;5060614;28;19917;-73
2022/12/19 03:03:46;;;;;;;;;;;2.60;99.90;;;;;;5072728;28;20303;-74
2022/12/19 03:06:25;;;;;;;;;;;2.60;99.90;;;;;;5069988;28;19912;-79
2022/12/19 03:08:51;;;;;;;;;;;2.70;99.90;;;;;;5069739;28;19912;-82
2022/12/19 03:11:17;;;;;;;;;;;2.80;99.90;;;;;;5073243;28;19959;-73
2022/12/19 03:14:09;;;;;;;;;;;2.80;99.90;;;;;;5071008;28;20299;-80
2022/12/19 03:16:36;;;;;;;;;;;2.80;99.90;;;;;;5067297;28;19920;-74
2022/12/19 03:19:01;;;;;;;;;;;2.80;99.90;;;;;;5073686;28;19908;-73
2022/12/19 03:21:41;;;;;;;;;;;2.90;99.90;;;;;;5073652;28;20314;-73
2022/12/19 03:24:08;;;;;;;;;;;2.90;99.90;;;;;;5074276;28;19909;-75
2022/12/19 03:26:36;;;;;;;;;;;3.00;99.90;;;;;;5072864;28;19917;-76
2022/12/19 03:29:13;;;;;;;;;;;3.00;99.90;;;;;;5068547;28;19917;-74
2022/12/19 03:31:39;;;;;;;;;;;3.10;99.90;;;;;;5071644;28;19909;-83
2022/12/19 03:34:12;;;;;;;;;;;3.10;99.90;;;;;;5065498;28;19923;-74
2022/12/19 03:36:40;;;;;;;;;;;3.20;99.90;;;;;;5074490;28;19935;-78
2022/12/19 03:39:07;;;;;;;;;;;3.30;99.90;;;;;;5062909;28;20015;-80
2022/12/19 03:44:21;;;;;;;;;;;3.40;99.90;;;;;;5074738;28;19931;-74
2022/12/19 03:47:07;;;;;;;;;;;3.40;99.90;;;;;;5065237;28;19912;-75
2022/12/19 03:49:32;;;;;;;;;;;3.40;99.90;;;;;;5071850;28;19908;-74
2022/12/19 03:52:10;;;;;;;;;;;3.40;99.90;;;;;;5073742;28;20011;-72
2022/12/19 03:54:39;;;;;;;;;;;3.50;99.90;;;;;;5075623;28;20311;-74
2022/12/19 03:57:07;;;;;;;;;;;3.50;99.90;;;;;;5074780;28;19919;-75
2022/12/19 03:59:48;;;;;;;;;;;3.40;99.90;;;;;;5074339;28;20333;-82
2022/12/19 04:02:15;;;;;;;;;;;3.40;99.90;;;;;;5072536;28;20641;-79
2022/12/19 04:04:46;;;;;;;;;;;3.50;99.90;;;;;;5072048;28;19940;-80
2022/12/19 04:07:12;;;;;;;;;;;3.50;99.90;;;;;;5076086;28;19913;-81
2022/12/19 04:09:38;;;;;;;;;;;3.50;99.90;;;;;;5074381;28;19909;-75
2022/12/19 04:12:06;;;;;;;;;;;3.60;99.90;;;;;;5074913;28;19908;-83
2022/12/19 04:14:33;;;;;;;;;;;3.80;99.90;;;;;;5074452;28;19915;-84
2022/12/19 04:16:59;;;;;;;;;;;3.80;99.90;;;;;;5076917;28;19909;-84
2022/12/19 04:19:35;;;;;;;;;;;3.70;99.90;;;;;;5075840;28;20379;-81
2022/12/19 04:22:04;;;;;;;;;;;3.70;99.90;;;;;;5076588;28;19908;-83
2022/12/19 04:24:32;;;;;;;;;;;3.70;99.90;;;;;;5081618;28;19920;-74
2022/12/19 04:26:58;;;;;;;;;;;3.90;99.90;;;;;;5072430;28;20215;-82
2022/12/19 04:29:25;;;;;;;;;;;3.90;99.90;;;;;;5071722;28;20363;-73
2022/12/19 04:31:51;;;;;;;;;;;4.00;99.90;;;;;;5077994;28;19919;-74
2022/12/19 04:34:18;;;;;;;;;;;4.00;99.90;;;;;;5068167;28;20295;-74
2022/12/19 04:36:44;;;;;;;;;;;4.10;99.90;;;;;;5072381;28;20364;-80
2022/12/19 04:39:10;;;;;;;;;;;4.10;99.90;;;;;;5067753;28;20015;-74
2022/12/19 04:41:35;;;;;;;;;;;4.10;99.90;;;;;;5077419;28;19931;-78
2022/12/19 04:44:01;;;;;;;;;;;4.00;99.90;;;;;;5073590;28;19927;-73
2022/12/19 04:46:26;;;;;;;;;;;4.00;99.90;;;;;;5076675;28;20307;-89
2022/12/19 04:48:52;;;;;;;;;;;4.00;99.90;;;;;;5066674;28;19913;-80
2022/12/19 04:51:18;;;;;;;;;;;4.10;99.90;;;;;;5075192;28;20315;-74
2022/12/19 04:53:43;;;;;;;;;;;4.20;99.90;;;;;;5080568;28;19919;-80
2022/12/19 04:56:09;;;;;;;;;;;4.10;99.90;;;;;;5076721;28;20003;-81
2022/12/19 04:58:34;;;;;;;;;;;4.20;99.90;;;;;;5077912;28;19919;-81
2022/12/19 05:01:01;;;;;;;;;;;4.20;99.90;;;;;;5074180;28;19961;-81
2022/12/19 05:03:26;;;;;;;;;;;4.20;99.90;;;;;;5068126;28;19919;-74
2022/12/19 05:05:52;;;;;;;;;;;4.20;99.90;;;;;;5068179;28;19912;-74
2022/12/19 05:08:17;;;;;;;;;;;4.30;99.90;;;;;;5075433;28;19918;-73
2022/12/19 05:10:43;;;;;;;;;;;4.30;99.90;;;;;;5066345;28;20295;-80
2022/12/19 05:13:08;;;;;;;;;;;4.30;99.90;;;;;;5073316;28;19998;-79
2022/12/19 05:15:34;;;;;;;;;;;4.40;99.90;;;;;;5065612;28;20218;-74
2022/12/19 05:17:59;;;;;;;;;;;4.40;99.90;;;;;;5076978;28;19908;-81
2022/12/19 05:20:25;;;;;;;;;;;4.40;99.90;;;;;;5073694;28;19940;-82
2022/12/19 05:22:50;;;;;;;;;;;4.50;99.90;;;;;;5068132;28;20294;-80
2022/12/19 05:25:16;;;;;;;;;;;4.50;99.90;;;;;;5061529;28;19908;-77
2022/12/19 05:27:41;;;;;;;;;;;4.50;99.90;;;;;;5057393;28;19909;-74
2022/12/19 05:30:07;;;;;;;;;;;4.50;99.90;;;;;;5074959;28;19908;-72
2022/12/19 05:32:33;;;;;;;;;;;4.60;99.90;;;;;;5074703;28;20267;-81
2022/12/19 05:34:59;;;;;;;;;;;4.60;99.90;;;;;;5077300;28;20378;-79
2022/12/19 05:37:24;;;;;;;;;;;4.60;99.90;;;;;;5074554;28;19966;-82
2022/12/19 05:39:50;;;;;;;;;;;4.60;99.90;;;;;;5074385;28;19916;-81
2022/12/19 05:42:15;;;;;;;;;;;4.60;99.90;;;;;;5072382;28;20007;-80
2022/12/19 05:44:41;;;;;;;;;;;4.60;99.90;;;;;;5074986;28;20011;-79
2022/12/19 05:47:06;;;;;;;;;;;4.70;99.90;;;;;;5074518;28;19916;-74
2022/12/19 05:49:32;;;;;;;;;;;4.70;99.90;;;;;;5065506;28;19912;-77
2022/12/19 05:51:57;;;;;;;;;;;4.70;99.90;;;;;;5075503;28;20354;-79
2022/12/19 05:54:23;;;;;;;;;;;4.70;99.90;;;;;;5079946;28;19912;-73
2022/12/19 05:56:48;;;;;;;;;;;4.70;99.90;;;;;;5064916;28;19917;-74
2022/12/19 05:59:14;;;;;;;;;;;4.80;99.90;;;;;;5074602;28;19916;-80
2022/12/19 06:01:39;;;;;;;;;;;4.80;99.90;;;;;;5074867;28;19920;-79
2022/12/19 06:04:06;;;;;;;;;;;4.80;99.90;;;;;;5061419;28;19916;-81
2022/12/19 06:06:32;;;;;;;;;;;4.80;99.90;;;;;;5074839;28;19989;-80
2022/12/19 06:08:58;;;;;;;;;;;4.90;99.90;;;;;;5071693;28;20303;-74
2022/12/19 06:11:24;;;;;;;;;;;4.90;99.90;;;;;;5073232;28;19922;-73
2022/12/19 06:13:50;;;;;;;;;;;4.90;99.90;;;;;;5072427;28;19921;-75
2022/12/19 06:16:16;;;;;;;;;;;4.90;99.90;;;;;;5068816;28;19965;-77
2022/12/19 06:18:42;;;;;;;;;;;5.00;99.90;;;;;;5065460;28;19912;-79
2022/12/19 06:21:28;;;;;;;;;;;5.00;99.90;;;;;;5058519;28;19920;-74
2022/12/19 06:23:54;;;;;;;;;;;5.10;99.90;;;;;;5057631;28;19991;-79
2022/12/19 06:26:20;;;;;;;;;;;5.10;99.90;;;;;;5061095;28;20276;-78
2022/12/19 06:28:46;;;;;;;;;;;5.20;99.90;;;;;;5074307;28;20327;-79
2022/12/19 06:31:12;;;;;;;;;;;5.20;99.90;;;;;;5083657;28;19908;-73
2022/12/19 06:33:37;;;;;;;;;;;5.20;99.90;;;;;;5079440;28;19908;-74
2022/12/19 06:36:04;;;;;;;;;;;5.20;99.90;;;;;;5074734;28;20363;-77
2022/12/19 06:38:30;;;;;;;;;;;5.20;99.90;;;;;;5073350;28;20034;-73
2022/12/19 06:43:40;;;;;;;;;;;5.30;99.90;;;;;;5069214;28;19927;-80
2022/12/19 06:46:06;;;;;;;;;;;5.40;99.90;;;;;;5075010;28;20003;-82
2022/12/19 06:48:32;;;;;;;;;;;5.40;99.90;;;;;;5075303;28;19912;-78
2022/12/19 06:50:57;;;;;;;;;;;5.40;99.90;;;;;;5074807;28;19909;-74
2022/12/19 06:53:24;;;;;;;;;;;5.50;99.90;;;;;;5076311;28;19916;-79
2022/12/19 06:55:52;;;;;;;;;;;5.50;99.90;;;;;;5072614;28;19920;-74
2022/12/19 06:58:18;;;;;;;;;;;5.50;99.90;;;;;;5065624;28;19920;-74
2022/12/19 07:00:43;;;;;;;;;;;5.50;99.90;;;;;;5064832;28;19917;-79
2022/12/19 07:03:10;;;;;;;;;;;5.60;99.90;;;;;;5074609;28;19913;-74
2022/12/19 07:05:36;;;;;;;;;;;5.60;99.90;;;;;;5074603;28;19939;-73
2022/12/19 07:08:02;;;;;;;;;;;5.60;99.90;;;;;;5073215;28;20255;-73
2022/12/19 07:10:28;;;;;;;;;;;5.60;99.90;;;;;;5072896;28;19996;-74
2022/12/19 07:12:53;;;;;;;;;;;5.60;99.90;;;;;;5074585;28;19955;-79
2022/12/19 07:15:19;;;;;;;;;;;5.70;99.90;;;;;;5069001;28;19916;-78
2022/12/19 07:17:44;;;;;;;;;;;5.70;99.90;;;;;;5074026;28;19915;-78
2022/12/19 07:20:10;;;;;;;;;;;5.70;99.90;;;;;;5065998;28;19924;-74
2022/12/19 07:22:36;;;;;;;;;;;5.80;99.90;;;;;;5073540;28;19912;-75
2022/12/19 07:25:02;;;;;;;;;;;5.80;99.90;;;;;;5069416;28;19917;-77
2022/12/19 07:27:28;;;;;;;;;;;5.90;99.90;;;;;;5073178;28;19917;-77
2022/12/19 07:29:54;;;;;;;;;;;5.90;99.90;;;;;;5062066;28;19967;-77
2022/12/19 07:32:20;;;;;;;;;;;5.90;99.90;;;;;;5062256;28;19917;-79
2022/12/19 07:34:45;;;;;;;;;;;6.00;99.90;;;;;;5066003;28;19920;-73
2022/12/19 07:37:11;;;;;;;;;;;6.00;99.90;;;;;;5069970;28;20332;-74
2022/12/19 07:39:36;;;;;;;;;;;6.00;99.90;;;;;;5055611;23;19935;-74
2022/12/19 07:42:02;;;;;;;;;;;6.00;99.90;;;;;;5045572;28;20639;-74
2022/12/19 07:44:28;;;;;;;;;;;6.10;99.90;;;;;;5051186;28;19909;-74
2022/12/19 07:46:53;;;;;;;;;;;6.10;99.90;;;;;;5053461;28;19924;-78
2022/12/19 07:49:19;;;;;;;;;;;6.10;99.90;;;;;;5052219;28;20192;-74
2022/12/19 07:51:44;;;;;;;;;;;6.10;99.90;;;;;;5052837;28;20339;-79
2022/12/19 07:54:10;;;;;;;;;;;6.10;99.90;;;;;;5056762;28;19909;-74
2022/12/19 07:56:35;;;;;;;;;;;6.10;99.90;;;;;;5056290;28;20272;-78
2022/12/19 07:59:01;;;;;;;;;;;6.10;99.90;;;;;;5058273;28;20260;-74
2022/12/19 08:01:26;;;;;;;;;;;6.10;99.90;;;;;;5048235;28;19927;-74
2022/12/19 08:03:52;;;;;;;;;;;6.10;99.90;;;;;;5049226;28;19913;-74
2022/12/19 08:06:18;;;;;;;;;;;6.10;99.90;;;;;;5056057;28;20223;-74
2022/12/19 08:08:44;;;;;;;;;;;6.20;99.90;;;;;;5058011;28;20247;-74
2022/12/19 08:11:11;;;;;;;;;;;6.20;99.90;;;;;;5057298;28;19917;-75
2022/12/19 08:13:36;;;;;;;;;;;6.20;99.90;;;;;;5055974;28;19944;-78
2022/12/19 08:16:02;;;;;;;;;;;6.20;99.90;;;;;;5055465;28;20002;-74
2022/12/19 08:18:28;;;;;;;;;;;6.10;99.90;;;;;;5057745;28;19909;-74
2022/12/19 08:20:54;;;;;;;;;;;6.10;99.90;;;;;;5055687;28;19921;-78
2022/12/19 08:23:19;;;;;;;;;;;6.20;99.90;;;;;;5050801;28;19914;-74
2022/12/19 08:25:45;;;;;;;;;;;6.20;99.90;;;;;;5056446;28;19916;-74
2022/12/19 08:28:10;;;;;;;;;;;6.20;99.90;;;;;;5056685;28;19908;-74
2022/12/19 08:30:39;;;;;;;;;;;6.20;99.90;;;;;;5052090;28;19955;-82
2022/12/19 08:33:05;;;;;;;;;;;6.20;99.90;;;;;;5055822;28;19916;-74
2022/12/19 08:35:31;;;;;;;;;;;6.20;99.90;;;;;;5055619;28;19913;-73
2022/12/19 08:37:56;;;;;;;;;;;6.20;99.90;;;;;;5041502;28;20483;-82
2022/12/19 08:40:22;;;;;;;;;;;6.30;99.90;;;;;;5060853;28;19921;-74
2022/12/19 08:42:49;;;;;;;;;;;6.30;99.90;;;;;;5056471;28;19913;-74
2022/12/19 08:45:15;;;;;;;;;;;6.20;99.90;;;;;;5057092;28;20007;-73
2022/12/19 08:47:42;;;;;;;;;;;6.30;99.90;;;;;;5056996;28;19949;-79
2022/12/19 08:50:08;;;;;;;;;;;6.20;99.90;;;;;;5048890;28;20212;-76
2022/12/19 08:52:33;;;;;;;;;;;6.30;99.90;;;;;;5036693;28;19913;-78
2022/12/19 08:54:59;;;;;;;;;;;6.30;99.90;;;;;;5057718;28;20323;-80
2022/12/19 08:57:25;;;;;;;;;;;6.40;99.90;;;;;;5053874;28;19909;-79
2022/12/19 08:59:50;;;;;;;;;;;6.40;99.90;;;;;;5055765;28;20311;-75
2022/12/19 09:02:16;;;;;;;;;;;6.40;99.90;;;;;;5056208;28;19908;-83
2022/12/19 09:04:41;;;;;;;;;;;6.40;99.90;;;;;;5045801;28;20234;-80
2022/12/19 09:07:07;;;;;;;;;;;6.40;99.90;;;;;;5050475;28;19917;-75
2022/12/19 09:09:32;;;;;;;;;;;6.50;99.90;;;;;;5053466;28;19917;-80
2022/12/19 09:11:58;;;;;;;;;;;6.50;99.90;;;;;;5056903;28;19920;-75
2022/12/19 09:14:23;;;;;;;;;;;6.50;99.90;;;;;;5056733;28;20015;-82
2022/12/19 09:16:49;;;;;;;;;;;6.50;99.90;;;;;;5055663;28;19944;-74
2022/12/19 09:19:15;;;;;;;;;;;6.50;99.90;;;;;;5055270;28;19917;-83
2022/12/19 09:21:41;;;;;;;;;;;6.50;99.90;;;;;;5054913;28;20303;-78
2022/12/19 09:24:07;;;;;;;;;;;6.60;99.90;;;;;;5055596;28;19920;-80
2022/12/19 09:26:33;;;;;;;;;;;6.60;99.90;;;;;;5055271;28;19916;-75
2022/12/19 09:28:59;;;;;;;;;;;6.60;99.90;;;;;;5055908;28;19917;-79
2022/12/19 09:31:25;;;;;;;;;;;6.70;99.90;;;;;;5049527;28;19974;-74
2022/12/19 09:33:51;;;;;;;;;;;6.60;99.90;;;;;;5052490;28;19909;-79
2022/12/19 09:36:21;;;;;;;;;;;6.70;99.90;;;;;;5036854;28;20247;-81
2022/12/19 09:38:47;;;;;;;;;;;6.70;99.90;;;;;;5050092;28;19968;-75
2022/12/19 09:41:16;;;;;;;;;;;6.70;99.90;;;;;;5051931;28;19924;-80
2022/12/19 09:43:47;;;;;;;;;;;6.70;99.90;;;;;;5052290;28;19913;-79
2022/12/19 09:46:15;;;;;;;;;;;6.80;99.90;;;;;;5052558;28;19913;-79
2022/12/19 09:48:41;;;;;;;;;;;6.80;99.90;;;;;;5051727;28;20297;-75
2022/12/19 09:51:15;;;;;;;;;;;6.70;99.90;;;;;;5052574;28;19912;-80
2022/12/19 09:53:54;;;;;;;;;;;6.70;99.90;;;;;;5051648;28;20368;-75
2022/12/19 09:56:21;;;;;;;;;;;6.80;99.90;;;;;;5054143;28;19908;-80
2022/12/19 09:58:51;;;;;;;;;;;6.80;99.90;;;;;;5049861;28;20363;-74
2022/12/19 10:01:23;;;;;;;;;;;6.80;99.90;;;;;;5051940;28;19958;-80
2022/12/19 10:04:11;;;;;;;;;;;6.80;99.90;;;;;;5045556;28;19916;-74
2022/12/19 10:06:37;;;;;;;;;;;6.80;99.90;;;;;;5040939;28;19917;-75
2022/12/19 10:09:03;;;;;;;;;;;6.80;99.90;;;;;;5042471;28;19921;-78
2022/12/19 10:11:44;;;;;;;;;;;6.90;99.90;;;;;;5053604;28;19920;-74
2022/12/19 10:14:15;;;;;;;;;;;6.90;99.90;;;;;;5043866;28;19913;-78
2022/12/19 10:16:46;;;;;;;;;;;6.80;99.90;;;;;;5049557;28;20398;-78
2022/12/19 10:19:22;;;;;;;;;;;6.80;99.90;;;;;;5051859;28;19909;-78
2022/12/19 10:21:58;;;;;;;;;;;6.80;99.90;;;;;;5045220;28;19916;-74
2022/12/19 10:24:44;;;;;;;;;;;6.90;99.90;;;;;;5054541;28;20382;-84
2022/12/19 10:27:19;;;;;;;;;;;7.00;99.90;;;;;;5012945;28;19920;-81
2022/12/19 10:30:11;;;;;;;;;;;7.00;99.90;;;;;;5055236;28;20165;-80
2022/12/19 10:33:00;;;;;;;;;;;7.10;99.90;;;;;;5037527;28;19955;-74
2022/12/19 10:35:40;;;;;;;;;;;7.10;99.90;;;;;;5028765;28;19955;-73
2022/12/19 10:38:20;;;;;;;;;;;7.20;99.90;;;;;;5051374;28;20000;-79
2022/12/19 10:40:52;;;;;;;;;;;7.20;99.90;;;;;;5052621;28;19975;-80
2022/12/19 10:43:25;;;;;;;;;;;7.20;99.90;;;;;;5052469;28;20341;-74
2022/12/19 10:45:54;;;;;;;;;;;7.30;99.90;;;;;;5052923;28;19920;-75
2022/12/19 10:48:20;;;;;;;;;;;7.30;99.90;;;;;;5052411;28;19928;-74
2022/12/19 10:50:46;;;;;;;;;;;7.30;99.90;;;;;;5049557;28;20228;-73
2022/12/19 10:53:12;;;;;;;;;;;7.30;99.90;;;;;;5051555;28;19919;-78
2022/12/19 10:55:38;;;;;;;;;;;7.30;99.90;;;;;;5047422;28;20223;-76
2022/12/19 10:58:21;;;;;;;;;;;7.30;99.90;;;;;;5050777;28;20365;-79
2022/12/19 11:00:52;;;;;;;;;;;7.30;99.90;;;;;;5047826;28;19971;-76
2022/12/19 11:03:18;;;;;;;;;;;7.30;99.90;;;;;;5053874;28;19966;-77
2022/12/19 11:05:51;;;;;;;;;;;7.30;99.90;;;;;;5049265;28;19916;-77
2022/12/19 11:08:22;;;;;;;;;;;7.30;99.90;;;;;;5049625;28;19969;-76
2022/12/19 11:10:50;;;;;;;;;;;7.40;99.90;;;;;;5035426;28;19952;-73
2022/12/19 11:13:25;;;;;;;;;;;7.30;99.90;;;;;;5042213;28;19925;-85
2022/12/19 11:16:01;;;;;;;;;;;7.40;99.90;;;;;;5053833;28;20020;-77
2022/12/19 11:18:34;;;;;;;;;;;7.40;99.90;;;;;;5053585;28;19966;-79
2022/12/19 11:21:01;;;;;;;;;;;7.40;99.90;;;;;;5052741;28;19974;-75
2022/12/19 11:23:28;;;;;;;;;;;7.30;99.90;;;;;;5049640;28;19909;-75
2022/12/19 11:26:01;;;;;;;;;;;7.30;99.90;;;;;;5052037;28;19920;-80
2022/12/19 11:28:37;;;;;;;;;;;7.30;99.90;;;;;;5050082;28;19924;-79
2022/12/19 11:31:03;;;;;;;;;;;7.30;99.90;;;;;;5053603;28;19959;-75
2022/12/19 11:33:29;;;;;;;;;;;7.30;99.90;;;;;;5052105;28;19917;-75
2022/12/19 11:35:55;;;;;;;;;;;7.30;99.90;;;;;;5050403;28;19924;-74
2022/12/19 11:38:44;;;;;;;;;;;7.30;99.90;;;;;;5038836;28;19932;-78
2022/12/19 11:41:19;;;;;;;;;;;7.30;99.90;;;;;;5038234;28;19967;-76
2022/12/19 11:43:44;;;;;;;;;;;7.30;99.90;;;;;;5049140;28;19913;-80
2022/12/19 11:46:22;;;;;;;;;;;7.30;99.90;;;;;;5053365;28;19920;-80
2022/12/19 11:48:55;;;;;;;;;;;7.40;99.90;;;;;;5054298;28;19919;-77
2022/12/19 11:51:24;;;;;;;;;;;7.40;99.90;;;;;;5048166;28;20315;-74
2022/12/19 11:53:55;;;;;;;;;;;7.40;99.90;;;;;;5055453;28;19913;-75
2022/12/19 11:56:22;;;;;;;;;;;7.40;99.90;;;;;;5055390;28;19909;-75
2022/12/19 11:58:50;;;;;;;;;;;7.40;99.90;;;;;;5053976;28;19912;-79
2022/12/19 12:01:40;;;;;;;;;;;7.40;99.90;;;;;;5036227;28;19924;-79
2022/12/19 12:04:29;;;;;;;;;;;7.50;99.90;;;;;;5046611;28;21662;-75
2022/12/19 12:06:55;;;;;;;;;;;7.60;99.90;;;;;;5047966;28;20355;-85
2022/12/19 12:09:39;;;;;;;;;;;7.60;99.90;;;;;;5050965;28;19913;-82
2022/12/19 12:12:16;;;;;;;;;;;7.60;99.90;;;;;;5037711;28;19916;-82
2022/12/19 12:14:50;;;;;;;;;;;7.70;99.90;;;;;;5053783;28;20310;-77
2022/12/19 12:17:24;;;;;;;;;;;7.70;99.90;;;;;;5047931;28;20007;-78
2022/12/19 12:19:53;;;;;;;;;;;7.70;99.90;;;;;;5058427;28;20007;-75
2022/12/19 12:22:31;;;;;;;;;;;7.70;99.90;;;;;;5041330;28;19971;-73
2022/12/19 12:25:14;;;;;;;;;;;7.70;99.90;;;;;;5053857;28;19920;-77
2022/12/19 12:27:43;;;;;;;;;;;7.70;99.90;;;;;;5066408;28;20264;-74
2022/12/19 12:30:10;;;;;;;;;;;7.70;99.90;;;;;;5049002;28;19974;-75
2022/12/19 12:32:54;;;;;;;;;;;7.70;99.90;;;;;;5051256;28;19963;-79
2022/12/19 12:35:29;;;;;;;;;;;7.70;99.90;;;;;;5052540;28;19917;-80
2022/12/19 12:37:54;;;;;;;;;;;7.60;99.90;;;;;;5049433;28;19920;-78
2022/12/19 12:40:26;;;;;;;;;;;7.60;99.90;;;;;;5048998;28;19937;-78
2022/12/19 12:43:10;;;;;;;;;;;7.60;99.90;;;;;;5058330;28;20289;-79
2022/12/19 12:45:40;;;;;;;;;;;7.60;99.90;;;;;;5053268;28;19919;-77
2022/12/19 12:48:14;;;;;;;;;;;7.60;99.90;;;;;;5055919;28;19913;-79
2022/12/19 12:50:43;;;;;;;;;;;7.70;99.90;;;;;;5053483;28;20449;-80
2022/12/19 12:53:09;;;;;;;;;;;7.70;99.90;;;;;;5053874;28;19912;-79
2022/12/19 12:55:39;;;;;;;;;;;7.70;99.90;;;;;;5055279;28;19913;-82
2022/12/19 12:58:05;;;;;;;;;;;7.70;99.90;;;;;;5053374;28;20307;-78
2022/12/19 13:00:30;;;;;;;;;;;7.70;99.90;;;;;;5056324;28;19923;-79
2022/12/19 13:03:05;;;;;;;;;;;7.70;99.90;;;;;;5056284;28;19913;-79
2022/12/19 13:05:34;;;;;;;;;;;7.70;99.90;;;;;;5054755;28;19916;-76
2022/12/19 13:07:59;;;;;;;;;;;7.70;99.90;;;;;;5055284;28;19917;-77
2022/12/19 13:10:26;;;;;;;;;;;7.70;99.90;;;;;;5056240;28;19913;-79
2022/12/19 13:13:12;;;;;;;;;;;7.70;99.90;;;;;;5051532;28;20312;-78
2022/12/19 13:15:39;;;;;;;;;;;7.70;99.90;;;;;;5053537;28;20355;-77
2022/12/19 13:18:23;;;;;;;;;;;7.70;99.90;;;;;;5055006;28;19917;-78
2022/12/19 13:20:48;;;;;;;;;;;7.80;99.90;;;;;;5028843;28;19962;-76
2022/12/19 13:23:20;;;;;;;;;;;7.80;99.90;;;;;;5052841;28;19913;-81
2022/12/19 13:25:48;;;;;;;;;;;7.80;99.90;;;;;;5051036;28;19917;-79
2022/12/19 13:28:13;;;;;;;;;;;7.80;99.90;;;;;;5044746;28;20672;-79
2022/12/19 13:30:59;;;;;;;;;;;7.80;99.90;;;;;;5042087;28;19920;-82
2022/12/19 13:33:43;;;;;;;;;;;7.80;99.90;;;;;;5050368;28;19921;-83
2022/12/19 13:36:27;;;;;;;;;;;7.80;99.90;;;;;;5043290;28;19936;-80
2022/12/19 13:38:57;;;;;;;;;;;7.80;99.90;;;;;;5052757;28;19931;-83
2022/12/19 13:44:12;;;;;;;;;;;7.80;99.90;;;;;;5048769;28;20018;-82
2022/12/19 13:46:41;;;;;;;;;;;7.80;99.90;;;;;;5054996;28;19972;-80
2022/12/19 13:49:12;;;;;;;;;;;7.80;99.90;;;;;;5054620;28;19913;-78
2022/12/19 13:51:42;;;;;;;;;;;7.80;99.90;;;;;;5052781;28;19917;-76
2022/12/19 13:54:27;;;;;;;;;;;7.90;99.90;;;;;;5046722;28;19921;-79
2022/12/19 13:56:53;;;;;;;;;;;7.90;99.90;;;;;;5059133;28;20067;-81
2022/12/19 13:59:20;;;;;;;;;;;8.00;99.90;;;;;;5052926;28;19964;-75
2022/12/19 14:01:45;;;;;;;;;;;8.00;99.90;;;;;;5052072;28;19913;-80
2022/12/19 14:04:15;;;;;;;;;;;8.10;99.90;;;;;;5051635;28;19913;-78
2022/12/19 14:06:44;;;;;;;;;;;8.00;99.90;;;;;;5050961;28;19965;-81
2022/12/19 14:09:22;;;;;;;;;;;8.00;99.90;;;;;;5051983;28;19921;-75
2022/12/19 14:11:48;;;;;;;;;;;8.00;99.90;;;;;;5047476;28;19912;-74
2022/12/19 14:17:06;;;;;;;;;;;8.00;99.90;;;;;;5052380;28;19958;-75
2022/12/19 14:19:37;;;;;;;;;;;8.10;99.90;;;;;;5048519;28;20189;-79
2022/12/19 14:22:13;;;;;;;;;;;8.10;99.90;;;;;;5046850;28;19925;-74
2022/12/19 14:24:39;;;;;;;;;;;8.00;99.90;;;;;;5044870;28;19988;-76
2022/12/19 14:27:12;;;;;;;;;;;8.00;99.90;;;;;;5050703;28;21412;-80
2022/12/19 14:29:45;;;;;;;;;;;8.10;99.90;;;;;;5037813;28;19962;-74
2022/12/19 14:32:11;;;;;;;;;;;8.10;99.90;;;;;;5048142;28;19913;-74
2022/12/19 14:34:37;;;;;;;;;;;8.10;99.90;;;;;;5049997;28;19916;-79
2022/12/19 14:37:02;;;;;;;;;;;8.10;99.90;;;;;;5043735;28;19982;-76
2022/12/19 14:39:33;;;;;;;;;;;8.10;99.90;;;;;;5041929;28;20041;-79
2022/12/19 14:45:28;;;;;;;;;;;8.10;99.90;;;;;;5051151;28;19994;-76
2022/12/19 14:47:53;;;;;;;;;;;8.10;99.90;;;;;;5045897;28;19921;-79
2022/12/19 14:50:26;;;;;;;;;;;8.00;99.90;;;;;;5044696;28;19924;-75
2022/12/19 14:53:12;;;;;;;;;;;8.00;99.90;;;;;;5044875;28;19919;-79
2022/12/19 14:55:38;;;;;;;;;;;7.90;99.90;;;;;;5037285;28;19924;-75
2022/12/19 14:58:14;;;;;;;;;;;7.80;99.90;;;;;;5045709;28;19917;-79